.
WxDataArchive / Data Records for 2011-11-11
2011-11-10 November 2011 2011-11-12

Data Records for Friday, 11 November 2011

Time	Temp	Chill	HIndex	Humid	Dewpt	 Wind 	HiWind	WindDir	Rain 	Barom 
-----	----	-----	------	-----	-----	------	------	-------	-----	----- 
00:00	34.4	34.4	34.4	88	31.2	2	4	270	0.00	29.973 
00:05	34.4	34.4	34.4	88	31.2	3	5	248	0.00	29.973 
00:10	34.4	34.4	34.4	88	31.2	2	4	270	0.00	29.973 
00:15	34.4	34.4	34.4	88	31.2	2	5	248	0.00	29.974 
00:20	34.3	34.3	34.3	88	31.1	2	4	248	0.00	29.974 
00:25	34.4	34.4	34.4	88	31.2	2	5	248	0.00	29.974 
00:30	34.4	34.4	34.4	88	31.2	1	3	270	0.00	29.977 
00:35	34.4	34.4	34.4	88	31.2	2	5	248	0.00	29.977 
00:40	34.4	34.4	34.4	88	31.2	2	4	248	0.00	29.977 
00:45	34.6	34.6	34.6	87	31.1	2	5	270	0.00	29.976 
00:50	34.6	34.6	34.6	87	31.1	2	4	270	0.00	29.976 
00:55	34.7	34.7	34.7	87	31.2	2	4	270	0.00	29.976 
01:00	34.9	34.9	34.9	86	31.1	1	4	270	0.00	29.971 
01:05	34.9	34.9	34.9	86	31.1	2	4	248	0.00	29.971 
01:10	34.9	34.9	34.9	85	30.9	2	5	248	0.00	29.971 
01:15	35.0	35.0	35.0	85	31.0	2	4	270	0.00	29.972 
01:20	35.0	35.0	35.0	84	30.7	2	4	292	0.00	29.972 
01:25	35.2	35.2	35.2	84	30.9	2	4	292	0.00	29.972 
01:30	35.2	35.2	35.2	84	30.9	1	3	248	0.00	29.977 
01:35	35.2	35.2	35.2	83	30.6	2	4	248	0.00	29.977 
01:40	35.3	35.3	35.3	82	30.4	2	4	270	0.00	29.977 
01:45	35.3	35.3	35.3	82	30.4	2	4	270	0.00	29.977 
01:50	35.3	35.3	35.3	81	30.1	2	4	270	0.00	29.977 
01:55	35.3	35.3	35.3	81	30.1	1	3	270	0.00	29.977 
02:00	35.2	35.2	35.2	80	29.7	1	3	270	0.00	29.980 
02:05	35.2	35.2	35.2	80	29.7	2	5	270	0.00	29.980 
02:10	35.0	35.0	35.0	80	29.5	1	3	292	0.00	29.980 
02:15	35.0	35.0	35.0	80	29.5	1	3	292	0.00	29.980 
02:20	34.9	34.9	34.9	80	29.4	1	3	292	0.00	29.980 
02:25	34.9	34.9	34.9	80	29.4	2	4	292	0.00	29.980 
02:30	34.7	34.7	34.7	80	29.2	1	3	292	0.00	29.982 
02:35	34.6	34.6	34.6	80	29.1	1	3	292	0.00	29.982 
02:40	34.4	34.4	34.4	80	28.9	1	3	292	0.00	29.982 
02:45	34.3	34.3	34.3	80	28.8	1	3	292	0.00	29.983 
02:50	34.3	34.3	34.3	81	29.1	1	3	292	0.00	29.983 
02:55	34.3	34.3	34.3	81	29.1	2	3	292	0.00	29.983 
03:00	34.1	34.1	34.1	81	28.9	0	2	292	0.00	29.983 
03:05	34.0	34.0	34.0	81	28.8	0	2	292	0.00	29.983 
03:10	33.8	33.8	33.8	81	28.6	0	2	292	0.00	29.983 
03:15	33.8	33.8	33.8	82	28.9	1	2	292	0.00	29.988 
03:20	33.8	33.8	33.8	82	28.9	1	3	292	0.00	29.988 
03:25	33.7	33.7	33.7	82	28.8	0	2	292	0.00	29.988 
03:30	33.5	33.5	33.5	82	28.6	0	2	292	0.00	29.992 
03:35	33.5	33.5	33.5	83	28.9	1	3	292	0.00	29.992 
03:40	33.5	33.5	33.5	83	28.9	1	3	292	0.00	29.992 
03:45	33.4	33.4	33.4	83	28.8	1	2	292	0.00	29.994 
03:50	33.4	33.4	33.4	83	28.8	1	3	292	0.00	29.994 
03:55	33.2	33.2	33.2	83	28.6	1	3	248	0.00	29.994 
04:00	33.2	33.2	33.2	83	28.6	1	4	248	0.00	29.992 
04:05	33.1	33.1	33.1	84	28.8	1	4	248	0.00	29.992 
04:10	33.1	33.1	33.1	84	28.8	1	3	248	0.00	29.992 
04:15	33.1	33.1	33.1	84	28.8	1	3	248	0.00	29.992 
04:20	32.9	32.9	32.9	84	28.6	2	3	248	0.00	29.992 
04:25	32.9	32.9	32.9	84	28.6	1	3	248	0.00	29.992 
04:30	32.8	32.8	32.8	84	28.5	1	2	248	0.00	29.994 
04:35	32.7	32.7	32.7	84	28.4	0	3	248	0.00	29.994 
04:40	32.5	32.5	32.5	84	28.2	1	5	248	0.00	29.994 
04:45	32.4	32.4	32.4	84	28.1	1	4	248	0.00	29.998 
04:50	32.4	32.4	32.4	84	28.1	1	3	248	0.00	29.998 
04:55	32.2	32.2	32.2	84	27.9	0	1	248	0.00	29.998 
05:00	32.1	32.1	32.1	84	27.8	0	2	248	0.00	30.001 
05:05	31.9	31.9	31.9	85	27.9	1	3	248	0.00	30.001 
05:10	31.8	31.8	31.8	85	27.8	1	4	270	0.00	30.001 
05:15	31.8	31.8	31.8	85	27.8	1	3	270	0.00	30.003 
05:20	31.6	31.6	31.6	86	27.9	1	4	270	0.00	30.003 
05:25	31.5	31.5	31.5	86	27.8	1	2	270	0.00	30.003 
05:30	31.3	31.3	31.3	86	27.6	1	2	270	0.00	30.003 
05:35	31.3	31.3	31.3	86	27.6	1	3	270	0.00	30.003 
05:40	31.2	31.2	31.2	86	27.5	1	4	270	0.00	30.003 
05:45	31.2	31.2	31.2	87	27.8	1	3	270	0.00	30.009 
05:50	31.0	31.0	31.0	87	27.6	1	3	270	0.00	30.009 
05:55	30.9	30.9	30.9	87	27.5	1	3	270	0.00	30.009 
06:00	30.9	30.9	30.9	87	27.5	1	3	270	0.00	30.010 
06:05	30.9	30.9	30.9	87	27.5	1	3	248	0.00	30.010 
06:10	30.7	30.7	30.7	87	27.3	1	4	248	0.00	30.010 
06:15	30.7	30.7	30.7	87	27.3	1	3	270	0.00	30.016 
06:20	30.7	30.7	30.7	88	27.6	1	3	292	0.00	30.016 
06:25	30.6	30.6	30.6	88	27.5	1	3	292	0.00	30.016 
06:30	30.6	30.6	30.6	88	27.5	1	3	292	0.00	30.020 
06:35	30.6	30.6	30.6	88	27.5	1	3	270	0.00	30.020 
06:40	30.4	30.4	30.4	88	27.3	1	3	270	0.00	30.020 
06:45	30.4	30.4	30.4	88	27.3	1	6	248	0.00	30.027 
06:50	30.4	30.4	30.4	88	27.3	1	3	248	0.00	30.027 
06:55	30.4	30.4	30.4	88	27.3	1	4	248	0.00	30.027 
07:00	30.3	30.3	30.3	88	27.2	0	3	248	0.00	30.034 
07:05	30.4	30.4	30.4	88	27.3	1	4	248	0.00	30.034 
07:10	30.4	30.4	30.4	88	27.3	1	4	248	0.00	30.034 
07:15	30.4	30.4	30.4	88	27.3	0	2	248	0.00	30.035 
07:20	30.6	30.6	30.6	88	27.5	1	3	248	0.00	30.035 
07:25	30.6	30.6	30.6	88	27.5	1	3	248	0.00	30.035 
07:30	30.6	30.6	30.6	88	27.5	1	4	248	0.00	30.038 
07:35	30.6	30.6	30.6	88	27.5	1	4	225	0.00	30.038 
07:40	30.7	30.7	30.7	87	27.3	1	3	292	0.00	30.038 
07:45	30.7	30.7	30.7	87	27.3	1	3	292	0.00	30.041 
07:50	30.7	30.7	30.7	87	27.3	1	4	248	0.00	30.041 
07:55	30.9	30.9	30.9	87	27.5	1	3	248	0.00	30.041 
08:00	30.9	30.9	30.9	87	27.5	0	2	248	0.00	30.042 
08:05	30.9	30.9	30.9	86	27.2	1	3	248	0.00	30.042 
08:10	31.0	31.0	31.0	86	27.3	1	4	248	0.00	30.042 
08:15	31.0	31.0	31.0	86	27.3	1	3	248	0.00	30.049 
08:20	31.2	31.2	31.2	85	27.2	2	4	248	0.00	30.049 
08:25	31.3	31.3	31.3	85	27.3	1	5	248	0.00	30.049 
08:30	31.5	31.5	31.5	85	27.5	0	4	248	0.00	30.050 
08:35	31.6	31.6	31.6	84	27.3	1	3	248	0.00	30.050 
08:40	31.6	31.6	31.6	84	27.3	1	4	248	0.00	30.050 
08:45	31.8	31.8	31.8	83	27.2	1	3	248	0.00	30.050 
08:50	31.9	31.9	31.9	82	27.0	1	3	248	0.00	30.050 
08:55	31.9	31.9	31.9	82	27.0	2	5	248	0.00	30.050 
09:00	32.2	32.2	32.2	81	27.0	1	4	248	0.00	30.045 
09:05	32.5	32.5	32.5	80	27.0	3	6	248	0.00	30.045 
09:10	32.8	32.8	32.8	78	26.7	2	6	248	0.00	30.045 
09:15	33.2	33.2	33.2	78	27.1	1	4	248	0.00	30.048 
09:20	33.7	33.7	33.7	77	27.3	1	4	248	0.00	30.048 
09:25	34.1	34.1	34.1	75	27.0	2	5	248	0.00	30.048 
09:30	34.4	34.4	34.4	74	27.0	2	4	248	0.00	30.049 
09:35	34.7	34.7	34.7	73	26.9	2	7	248	0.00	30.049 
09:40	35.0	35.0	35.0	73	27.2	1	7	270	0.00	30.049 
09:45	35.3	35.3	35.3	70	26.5	2	5	248	0.00	30.050 
09:50	35.6	35.6	35.6	70	26.8	2	5	248	0.00	30.050 
09:55	35.8	35.8	35.8	68	26.3	3	5	270	0.00	30.050 
10:00	35.9	35.9	35.9	68	26.4	2	6	248	0.00	30.048 
10:05	36.3	36.3	36.3	68	26.8	2	5	248	0.00	30.048 
10:10	36.6	36.6	36.6	67	26.7	1	5	248	0.00	30.048 
10:15	37.0	37.0	37.0	65	26.3	1	5	248	0.00	30.044 
10:20	37.5	37.5	37.5	64	26.4	2	5	248	0.00	30.044 
10:25	37.9	37.9	37.9	65	27.2	2	5	248	0.00	30.044 
10:30	38.0	38.0	38.0	62	26.2	3	5	248	0.00	30.045 
10:35	38.2	38.2	38.2	61	26.0	3	5	292	0.00	30.045 
10:40	38.3	38.3	38.3	59	25.2	3	5	270	0.00	30.045 
10:45	38.5	38.5	38.5	60	25.8	3	5	270	0.00	30.045 
10:50	38.8	38.8	38.8	59	25.7	3	7	248	0.00	30.045 
10:55	39.2	39.2	39.2	61	26.9	1	3	248	0.00	30.045 
11:00	39.3	39.3	39.3	58	25.8	2	5	270	0.00	30.047 
11:05	39.6	39.6	39.6	58	26.1	2	7	248	0.00	30.047 
11:10	39.5	39.5	39.5	57	25.5	3	7	270	0.00	30.047 
11:15	39.8	39.8	39.8	56	25.4	2	5	292	0.00	30.047 
11:20	39.8	39.8	39.8	55	25.0	3	5	270	0.00	30.047 
11:25	39.8	39.8	39.8	55	25.0	3	9	248	0.00	30.047 
11:30	39.9	39.9	39.9	56	25.5	2	5	248	0.00	30.047 
11:35	39.9	39.9	39.9	54	24.6	3	6	270	0.00	30.047 
11:40	39.8	39.8	39.8	55	25.0	3	5	270	0.00	30.047 
11:45	40.1	40.1	40.1	55	25.2	3	5	270	0.00	30.046 
11:50	40.2	40.2	40.2	55	25.3	3	6	270	0.00	30.046 
11:55	40.2	40.2	40.2	55	25.3	3	6	270	0.00	30.046 
12:00	40.5	40.5	40.5	55	25.6	3	7	248	0.00	30.044 
12:05	40.6	40.6	40.6	53	24.8	3	9	248	0.00	30.044 
12:10	40.5	37.9	40.5	52	24.3	4	7	248	0.00	30.044 
12:15	40.2	40.2	40.2	53	24.5	3	6	270	0.00	30.044 
12:20	40.3	40.3	40.3	54	25.0	2	6	248	0.00	30.044 
12:25	40.6	40.6	40.6	54	25.3	2	5	248	0.00	30.044 
12:30	40.6	40.6	40.6	53	24.8	3	7	270	0.00	30.034 
12:35	40.8	40.8	40.8	54	25.5	3	6	270	0.00	30.034 
12:40	40.8	40.8	40.8	53	25.0	3	7	270	0.00	30.034 
12:45	41.1	41.1	41.1	54	25.7	2	6	270	0.00	30.028 
12:50	41.3	41.3	41.3	53	25.5	2	5	270	0.00	30.028 
12:55	41.3	41.3	41.3	53	25.5	2	4	248	0.00	30.028 
13:00	40.9	40.9	40.9	53	25.1	3	6	270	0.00	30.022 
13:05	40.5	40.5	40.5	54	25.2	3	10	270	0.00	30.022 
13:10	40.3	40.3	40.3	54	25.0	3	10	248	0.00	30.022 
13:15	40.2	40.2	40.2	54	24.9	3	5	270	0.00	30.014 
13:20	40.3	40.3	40.3	55	25.4	2	4	248	0.00	30.014 
13:25	40.5	40.5	40.5	54	25.2	2	6	248	0.00	30.014 
13:30	40.5	40.5	40.5	54	25.2	2	7	248	0.00	30.006 
13:35	40.5	40.5	40.5	54	25.2	2	4	248	0.00	30.006 
13:40	40.5	40.5	40.5	54	25.2	2	5	248	0.00	30.006 
13:45	40.5	40.5	40.5	54	25.2	2	4	248	0.00	29.998 
13:50	40.6	40.6	40.6	55	25.7	0	2	248	0.00	29.998 
13:55	40.6	40.6	40.6	54	25.3	2	4	270	0.00	29.998 
14:00	40.6	40.6	40.6	54	25.3	2	4	270	0.00	29.996 
14:05	40.6	40.6	40.6	54	25.3	2	5	248	0.00	29.996 
14:10	40.8	40.8	40.8	54	25.5	2	5	270	0.00	29.996 
14:15	41.1	41.1	41.1	53	25.3	2	4	225	0.00	29.996 
14:20	41.2	41.2	41.2	53	25.4	2	5	270	0.00	29.996 
14:25	41.1	41.1	41.1	53	25.3	3	10	270	0.00	29.996 
14:30	41.2	41.2	41.2	52	24.9	2	4	248	0.00	29.986 
14:35	41.5	41.5	41.5	52	25.2	3	9	248	0.00	29.986 
14:40	41.8	41.8	41.8	52	25.5	3	7	248	0.00	29.986 
14:45	41.9	41.9	41.9	53	26.0	2	6	248	0.00	29.978 
14:50	42.1	42.1	42.1	53	26.2	1	6	248	0.00	29.978 
14:55	42.2	42.2	42.2	53	26.3	2	5	248	0.00	29.978 
15:00	42.3	42.3	42.3	52	25.9	2	7	248	0.00	29.975 
15:05	42.1	42.1	42.1	52	25.8	3	11	248	0.00	29.975 
15:10	42.1	42.1	42.1	51	25.3	3	6	248	0.00	29.975 
15:15	41.9	41.9	41.9	51	25.1	2	5	248	0.00	29.968 
15:20	41.8	41.8	41.8	52	25.5	1	4	248	0.00	29.968 
15:25	41.8	41.8	41.8	52	25.5	2	4	248	0.00	29.968 
15:30	41.8	41.8	41.8	53	25.9	1	5	248	0.00	29.971 
15:35	42.1	42.1	42.1	54	26.7	1	4	248	0.00	29.971 
15:40	42.3	42.3	42.3	54	26.9	1	4	248	0.00	29.971 
15:45	42.3	42.3	42.3	52	25.9	2	5	248	0.00	29.973 
15:50	42.6	42.6	42.6	52	26.2	2	6	248	0.00	29.973 
15:55	42.6	42.6	42.6	52	26.2	1	7	248	0.00	29.973 
16:00	42.8	42.8	42.8	51	25.9	2	6	248	0.00	29.968 
16:05	42.6	42.6	42.6	51	25.8	2	4	248	0.00	29.968 
16:10	42.5	42.5	42.5	52	26.1	2	4	248	0.00	29.968 
16:15	42.2	42.2	42.2	53	26.3	2	6	248	0.00	29.967 
16:20	42.1	42.1	42.1	54	26.7	2	6	248	0.00	29.967 
16:25	41.9	41.9	41.9	55	26.9	1	5	248	0.00	29.967 
16:30	41.9	41.9	41.9	56	27.4	1	5	248	0.00	29.963 
16:35	41.8	41.8	41.8	56	27.3	0	2	248	0.00	29.963 
16:40	41.6	41.6	41.6	57	27.5	0	2	248	0.00	29.963 
16:45	41.5	41.5	41.5	58	27.8	1	4	248	0.00	29.957 
16:50	41.3	41.3	41.3	57	27.2	2	6	248	0.00	29.957 
16:55	41.2	41.2	41.2	57	27.1	1	5	225	0.00	29.957 
17:00	41.2	41.2	41.2	57	27.1	0	4	248	0.00	29.958 
17:05	41.1	41.1	41.1	58	27.5	0	1	248	0.00	29.958 
17:10	40.9	40.9	40.9	58	27.3	0	3	248	0.00	29.958 
17:15	40.8	40.8	40.8	58	27.2	0	4	248	0.00	29.954 
17:20	40.6	40.6	40.6	58	27.0	0	2	248	0.00	29.954 
17:25	40.5	40.5	40.5	59	27.3	0	3	270	0.00	29.954 
17:30	40.2	40.2	40.2	59	27.0	0	2	270	0.00	29.954 
17:35	40.1	40.1	40.1	59	26.9	0	3	270	0.00	29.954 
17:40	39.9	39.9	39.9	59	26.7	0	3	270	0.00	29.954 
17:45	39.6	39.6	39.6	60	26.9	0	1	270	0.00	29.949 
17:50	39.3	39.3	39.3	61	27.0	0	1	270	0.00	29.949 
17:55	39.1	39.1	39.1	61	26.8	0	0	---	0.00	29.949 
18:00	38.8	38.8	38.8	61	26.5	0	0	---	0.00	29.946 
18:05	38.3	38.3	38.3	62	26.4	0	0	---	0.00	29.946 
18:10	38.2	38.2	38.2	62	26.3	0	0	---	0.00	29.946 
18:15	37.9	37.9	37.9	62	26.1	0	0	---	0.00	29.943 
18:20	37.8	37.8	37.8	63	26.4	0	0	---	0.00	29.943 
18:25	37.6	37.6	37.6	63	26.2	0	0	---	0.00	29.943 
18:30	37.5	37.5	37.5	63	26.1	0	1	270	0.00	29.937 
18:35	37.3	37.3	37.3	64	26.3	0	0	---	0.00	29.937 
18:40	37.2	37.2	37.2	64	26.2	0	0	---	0.00	29.937 
18:45	36.9	36.9	36.9	64	25.9	0	0	---	0.00	29.939 
18:50	36.8	36.8	36.8	64	25.8	0	1	270	0.00	29.939 
18:55	36.8	36.8	36.8	65	26.2	0	0	---	0.00	29.939 
19:00	36.6	36.6	36.6	65	26.0	0	0	---	0.00	29.937 
19:05	36.5	36.5	36.5	65	25.9	0	0	---	0.00	29.937 
19:10	36.3	36.3	36.3	65	25.7	0	0	---	0.00	29.937 
19:15	36.2	36.2	36.2	65	25.6	0	0	---	0.00	29.939 
19:20	36.0	36.0	36.0	66	25.8	0	0	---	0.00	29.939 
19:25	36.0	36.0	36.0	66	25.8	0	1	270	0.00	29.939 
19:30	36.0	36.0	36.0	66	25.8	0	0	---	0.00	29.941 
19:35	36.0	36.0	36.0	66	25.8	0	0	---	0.00	29.941 
19:40	36.0	36.0	36.0	66	25.8	0	0	---	0.00	29.941 
19:45	35.9	35.9	35.9	67	26.0	0	1	270	0.00	29.937 
19:50	36.0	36.0	36.0	67	26.1	0	3	270	0.00	29.937 
19:55	36.0	36.0	36.0	67	26.1	0	3	248	0.00	29.937 
20:00	36.3	36.3	36.3	67	26.4	0	3	248	0.00	29.940 
20:05	36.6	36.6	36.6	66	26.3	0	3	248	0.00	29.940 
20:10	36.9	36.9	36.9	66	26.6	1	3	248	0.00	29.940 
20:15	37.2	37.2	37.2	65	26.5	0	3	315	0.00	29.931 
20:20	37.2	37.2	37.2	65	26.5	0	2	225	0.00	29.931 
20:25	37.3	37.3	37.3	65	26.6	0	4	225	0.00	29.931 
20:30	37.3	37.3	37.3	65	26.6	1	5	45	0.00	29.912 
20:35	37.3	37.3	37.3	64	26.3	0	1	0	0.00	29.912 
20:40	37.3	37.3	37.3	64	26.3	0	2	0	0.00	29.912 
20:45	37.3	37.3	37.3	64	26.3	0	2	270	0.00	29.910 
20:50	37.3	37.3	37.3	64	26.3	0	2	270	0.00	29.910 
20:55	37.3	37.3	37.3	64	26.3	0	2	0	0.00	29.910 
21:00	37.3	37.3	37.3	64	26.3	0	2	225	0.00	29.909 
21:05	37.3	37.3	37.3	64	26.3	0	4	225	0.00	29.909 
21:10	37.5	37.5	37.5	63	26.1	1	5	248	0.00	29.909 
21:15	37.6	37.6	37.6	63	26.2	1	3	248	0.00	29.904 
21:20	37.6	37.6	37.6	62	25.8	0	4	248	0.00	29.904 
21:25	37.6	37.6	37.6	63	26.2	0	1	248	0.00	29.904 
21:30	37.5	37.5	37.5	63	26.1	0	4	248	0.00	29.896 
21:35	37.3	37.3	37.3	63	25.9	0	2	248	0.00	29.896 
21:40	37.2	37.2	37.2	63	25.8	0	3	248	0.00	29.896 
21:45	37.2	37.2	37.2	63	25.8	0	2	248	0.00	29.889 
21:50	37.2	37.2	37.2	63	25.8	0	2	248	0.00	29.889 
21:55	37.2	37.2	37.2	63	25.8	0	3	248	0.00	29.889 
22:00	37.2	37.2	37.2	62	25.4	1	3	68	0.00	29.886 
22:05	37.2	37.2	37.2	62	25.4	0	3	68	0.00	29.886 
22:10	37.2	37.2	37.2	62	25.4	0	3	68	0.00	29.886 
22:15	37.0	37.0	37.0	62	25.2	0	1	68	0.00	29.874 
22:20	37.0	37.0	37.0	62	25.2	0	1	68	0.00	29.874 
22:25	37.0	37.0	37.0	62	25.2	0	1	90	0.00	29.874 
22:30	37.0	37.0	37.0	62	25.2	0	3	90	0.00	29.869 
22:35	37.2	37.2	37.2	62	25.4	1	3	90	0.00	29.869 
22:40	37.2	37.2	37.2	62	25.4	0	2	90	0.00	29.869 
22:45	37.2	37.2	37.2	62	25.4	0	1	90	0.00	29.860 
22:50	37.2	37.2	37.2	62	25.4	0	4	90	0.00	29.860 
22:55	37.0	37.0	37.0	62	25.2	0	4	270	0.00	29.860 
23:00	36.9	36.9	36.9	62	25.1	0	1	112	0.00	29.853 
23:05	36.8	36.8	36.8	62	25.0	0	1	112	0.00	29.853 
23:10	36.8	36.8	36.8	62	25.0	0	1	112	0.00	29.853 
23:15	36.6	36.6	36.6	63	25.2	0	1	112	0.00	29.844 
23:20	36.6	36.6	36.6	62	24.8	0	2	135	0.00	29.844 
23:25	36.6	36.6	36.6	62	24.8	0	2	135	0.00	29.844 
23:30	36.8	36.8	36.8	62	25.0	0	2	45	0.00	29.838 
23:35	36.6	36.6	36.6	63	25.2	0	2	68	0.00	29.838 
23:40	36.5	36.5	36.5	63	25.1	0	2	68	0.00	29.838 
23:45	36.5	36.5	36.5	63	25.1	0	1	68	0.00	29.836 
23:50	36.3	36.3	36.3	64	25.3	0	1	68	0.00	29.836 
23:55	36.2	36.2	36.2	64	25.2	0	1	68	0.00	29.836 

CoCoRaHS
IN-AL-39
A2 Web Hosting
Creative Commons License
GoDaddy
search engine by freefind advanced

loaded 2018-11-13 18:17:11 • last modified 2010-11-18 10:43:29
Privacy PolicyDisclaimer
• wx.awcolley.com is powered by PmWiki v.2002016 •
• all content (unless otherwise noted) © 2018 A W Colley